Time;durP1;ratioP1;P1;durP2;ratioP2;P2;SDS_P1;SDS_P2;PMS_P1;PMS_P2;Temp;Humidity;BMP_temperature;BMP_pressure;BME280_temperature;BME280_humidity;BME280_pressure;Samples;Min_cycle;Max_cycle;Signal;HPM_P1;HPM_P2
2023/04/24 00:01:29;;;;;;;16.48;14.88;;;;;;;8.92;100.00;99930.84;5009179;28;20136;-85
2023/04/24 00:03:59;;;;;;;18.20;15.52;;;;;;;8.92;100.00;99915.09;5009229;28;20418;-85
2023/04/24 00:06:32;;;;;;;17.20;15.40;;;;;;;8.91;100.00;99931.81;4993353;28;20596;-85
2023/04/24 00:09:01;;;;;;;16.70;15.02;;;;;;;8.92;100.00;99928.22;5008845;28;20041;-85
2023/04/24 00:11:35;;;;;;;17.55;15.70;;;;;;;8.89;100.00;99923.22;5008542;28;20049;-86
2023/04/24 00:14:04;;;;;;;19.92;16.40;;;;;;;8.90;100.00;99922.28;4991891;28;20064;-85
2023/04/24 00:16:47;;;;;;;20.20;16.95;;;;;;;8.87;100.00;99930.41;4993246;28;20119;-86
2023/04/24 00:19:12;;;;;;;21.23;17.60;;;;;;;8.86;100.00;99931.34;5009719;28;20064;-85
2023/04/24 00:21:46;;;;;;;22.65;17.77;;;;;;;8.84;100.00;99923.59;5009855;28;20041;-86
2023/04/24 00:24:15;;;;;;;24.48;19.05;;;;;;;8.82;100.00;99924.69;5008501;28;20061;-87
2023/04/24 00:26:40;;;;;;;25.48;19.75;;;;;;;8.82;100.00;99937.81;4993825;28;21804;-86
2023/04/24 00:29:19;;;;;;;25.00;19.63;;;;;;;8.77;100.00;99930.28;5011129;28;20025;-86
2023/04/24 00:31:54;;;;;;;23.33;19.30;;;;;;;8.76;100.00;99932.06;5010432;28;20110;-85
2023/04/24 00:34:22;;;;;;;22.45;19.55;;;;;;;8.71;100.00;99942.09;5009439;28;20226;-86
2023/04/24 00:36:50;;;;;;;24.02;20.20;;;;;;;8.71;100.00;99929.00;5010191;28;20363;-86
2023/04/24 00:39:15;;;;;;;25.00;20.10;;;;;;;8.67;100.00;99945.94;5017550;28;20079;-86
2023/04/24 00:41:45;;;;;;;26.55;20.27;;;;;;;8.64;100.00;99943.56;5045791;28;20040;-86
2023/04/24 00:44:10;;;;;;;26.38;21.02;;;;;;;8.64;100.00;99947.97;5044778;28;20031;-86
2023/04/24 00:46:45;;;;;;;26.83;21.17;;;;;;;8.64;100.00;99948.81;5049520;28;20032;-86
2023/04/24 00:49:14;;;;;;;24.65;21.95;;;;;;;8.62;100.00;99944.66;5031352;28;20037;-86
2023/04/24 00:51:49;;;;;;;25.35;21.42;;;;;;;8.61;100.00;99940.34;5051404;28;20503;-86
2023/04/24 00:54:15;;;;;;;30.70;22.48;;;;;;;8.57;100.00;99937.16;5048351;28;20013;-86
2023/04/24 00:56:53;;;;;;;31.55;22.05;;;;;;;8.58;100.00;99938.81;5042077;28;20123;-86
2023/04/24 00:59:18;;;;;;;26.77;22.63;;;;;;;8.57;100.00;99942.41;5046684;28;20039;-86
2023/04/24 01:01:47;;;;;;;26.80;22.05;;;;;;;8.55;100.00;99941.69;5049388;28;20032;-85
2023/04/24 01:07:10;;;;;;;29.17;22.88;;;;;;;8.57;100.00;99939.78;5047260;28;20021;-86
2023/04/24 01:09:47;;;;;;;32.78;23.65;;;;;;;8.57;100.00;99937.16;5046926;28;20037;-86
2023/04/24 01:12:24;;;;;;;31.05;23.88;;;;;;;8.54;100.00;99940.03;5064859;28;20029;-85
2023/04/24 01:14:49;;;;;;;31.15;23.30;;;;;;;8.50;100.00;99930.75;5050150;28;20033;-85
2023/04/24 01:17:18;;;;;;;30.13;23.52;;;;;;;8.47;100.00;99928.38;5035024;28;20481;-85
2023/04/24 01:19:46;;;;;;;29.80;24.77;;;;;;;8.47;100.00;99933.59;5046947;28;20477;-85
2023/04/24 01:22:19;;;;;;;31.08;24.45;;;;;;;8.44;100.00;99932.06;5050343;28;20028;-86
2023/04/24 01:24:47;;;;;;;29.13;25.10;;;;;;;8.42;100.00;99933.97;5063359;28;20125;-86
2023/04/24 01:27:15;;;;;;;30.30;26.13;;;;;;;8.40;100.00;99935.03;5050471;28;20524;-86
2023/04/24 01:29:41;;;;;;;34.67;28.38;;;;;;;8.38;100.00;99932.53;5048971;28;20071;-86
2023/04/24 01:32:06;;;;;;;36.53;28.95;;;;;;;8.38;100.00;99934.31;5049690;28;20512;-86
2023/04/24 01:34:35;;;;;;;35.75;28.73;;;;;;;8.34;100.00;99935.50;5047355;28;20025;-87
2023/04/24 01:37:09;;;;;;;38.00;29.40;;;;;;;8.34;100.00;99932.91;5049125;28;20028;-86
2023/04/24 01:39:35;;;;;;;38.28;30.10;;;;;;;8.31;100.00;99935.72;5049142;28;20059;-87
2023/04/24 01:42:07;;;;;;;35.97;30.63;;;;;;;8.29;100.00;99935.84;5047047;28;20025;-86
2023/04/24 01:44:41;;;;;;;40.22;32.25;;;;;;;8.32;100.00;99937.41;5050261;28;20108;-86
2023/04/24 01:47:12;;;;;;;41.22;31.90;;;;;;;8.30;100.00;99928.81;5046977;28;20021;-86
2023/04/24 01:49:41;;;;;;;40.70;32.03;;;;;;;8.30;100.00;99934.91;5048216;28;20112;-87
2023/04/24 01:52:09;;;;;;;37.13;32.78;;;;;;;8.31;100.00;99935.72;5046979;28;20488;-87
2023/04/24 01:54:38;;;;;;;40.28;33.40;;;;;;;8.30;100.00;99939.31;5047905;28;20025;-87
2023/04/24 01:57:07;;;;;;;37.67;32.10;;;;;;;8.32;100.00;99937.41;5049021;28;20031;-87
2023/04/24 01:59:42;;;;;;;38.95;33.33;;;;;;;8.31;100.00;99935.72;5048624;28;20029;-85
2023/04/24 02:02:10;;;;;;;37.80;32.45;;;;;;;8.30;100.00;99939.31;5048199;28;20055;-86
2023/04/24 02:04:39;;;;;;;37.90;31.92;;;;;;;8.29;100.00;99942.88;5049879;28;20155;-85
2023/04/24 02:07:04;;;;;;;37.75;32.72;;;;;;;8.27;100.00;99936.94;5045539;28;20017;-86
2023/04/24 02:09:30;;;;;;;36.05;31.90;;;;;;;8.24;100.00;99945.88;5042087;28;20512;-84
2023/04/24 02:12:01;;;;;;;36.60;31.35;;;;;;;8.22;100.00;99944.31;5030167;28;20104;-85
2023/04/24 02:14:27;;;;;;;34.17;29.63;;;;;;;8.20;100.00;99943.59;5038653;28;20031;-85
2023/04/24 02:16:58;;;;;;;33.67;29.52;;;;;;;8.19;100.00;99942.78;5048481;28;20473;-86
2023/04/24 02:19:32;;;;;;;34.20;30.50;;;;;;;8.18;100.00;99957.66;5047602;28;20029;-85
2023/04/24 02:22:06;;;;;;;34.05;29.48;;;;;;;8.16;100.00;99956.94;5046920;28;20025;-85
2023/04/24 02:27:30;;;;;;;37.88;30.30;;;;;;;8.14;100.00;99955.41;5036313;28;20029;-85
2023/04/24 02:29:58;;;;;;;34.03;30.33;;;;;;;8.10;100.00;99953.97;5043954;28;20504;-86
2023/04/24 02:32:27;;;;;;;37.70;30.55;;;;;;;8.08;100.00;99954.09;5046626;28;20028;-86
2023/04/24 02:34:55;;;;;;;40.70;31.58;;;;;;;8.06;100.00;99952.56;5029259;28;20100;-86
2023/04/24 02:37:23;;;;;;;38.30;31.98;;;;;;;8.05;100.00;99946.50;5029459;28;20390;-87
2023/04/24 02:39:55;;;;;;;39.08;31.27;;;;;;;8.05;100.00;99949.09;5043240;28;20049;-86
2023/04/24 02:42:27;;;;;;;37.45;30.80;;;;;;;8.03;100.00;99943.16;5047283;28;20029;-87
2023/04/24 02:44:52;;;;;;;36.03;30.92;;;;;;;8.02;100.00;99945.91;5046505;28;20025;-86
2023/04/24 02:47:20;;;;;;;34.95;30.70;;;;;;;8.05;100.00;99945.66;5046687;28;20077;-86
2023/04/24 02:49:49;;;;;;;33.95;30.27;;;;;;;8.03;100.00;99937.91;5046864;28;20027;-85
2023/04/24 02:52:15;;;;;;;36.10;30.35;;;;;;;8.04;100.00;99936.97;5047942;28;20029;-85
2023/04/24 02:54:40;;;;;;;33.38;29.77;;;;;;;8.05;100.00;99935.19;5045249;28;20512;-86
2023/04/24 02:57:15;;;;;;;36.35;30.23;;;;;;;8.04;100.00;99939.59;5035352;28;20033;-85
2023/04/24 02:59:46;;;;;;;34.42;30.70;;;;;;;8.04;100.00;99929.09;5031179;28;20035;-85
2023/04/24 03:02:14;;;;;;;34.17;30.58;;;;;;;8.03;100.00;99923.97;5045838;28;20032;-85
2023/04/24 03:04:43;;;;;;;34.58;30.85;;;;;;;8.03;100.00;99927.44;5054843;28;20037;-85
2023/04/24 03:07:20;;;;;;;33.55;29.98;;;;;;;8.03;100.00;99921.38;5044921;28;20044;-85
2023/04/24 03:09:57;;;;;;;44.83;31.23;;;;;;;8.03;100.00;99932.69;5045042;28;20029;-85
2023/04/24 03:12:26;;;;;;;33.92;28.92;;;;;;;8.03;100.00;99927.44;5059528;28;20041;-85
2023/04/24 03:14:58;;;;;;;35.78;29.17;;;;;;;8.02;100.00;99935.41;5047467;28;20028;-85
2023/04/24 03:17:23;;;;;;;33.47;29.53;;;;;;;8.00;100.00;99927.66;5047164;28;20112;-85
2023/04/24 03:20:01;;;;;;;32.25;28.63;;;;;;;8.01;100.00;99934.59;5038600;28;20780;-86
2023/04/24 03:22:33;;;;;;;30.95;27.70;;;;;;;8.04;100.00;99929.09;5041204;28;20028;-85
2023/04/24 03:25:12;;;;;;;;;;;;;;;;;;;;;
2023/04/24 03:27:37;;;;;;;31.15;26.42;;;;;;;7.98;100.00;99934.78;5049293;28;20017;-85
2023/04/24 03:30:03;;;;;;;29.40;26.33;;;;;;;7.99;100.00;99925.16;5048824;28;20450;-86
2023/04/24 03:32:29;;;;;;;29.75;25.90;;;;;;;7.97;100.00;99932.28;5064219;28;20071;-85
2023/04/24 03:34:54;;;;;;;27.95;24.95;;;;;;;7.95;100.00;99939.44;5043654;28;20120;-85
2023/04/24 03:37:20;;;;;;;29.55;25.80;;;;;;;7.96;100.00;99931.47;5043758;28;20048;-86
2023/04/24 03:39:45;;;;;;;28.63;24.63;;;;;;;7.99;100.00;99939.06;5050257;28;20517;-86
2023/04/24 03:42:13;;;;;;;32.47;24.88;;;;;;;7.98;100.00;99934.78;5051725;28;20082;-85
2023/04/24 03:44:39;;;;;;;30.38;25.30;;;;;;;7.97;100.00;99929.66;5053036;28;20029;-85
2023/04/24 03:47:04;;;;;;;26.75;23.38;;;;;;;7.96;100.00;99918.38;5051633;28;20021;-85
2023/04/24 03:49:32;;;;;;;29.42;24.17;;;;;;;7.98;100.00;99928.72;5052815;28;20059;-86
2023/04/24 03:52:07;;;;;;;27.38;23.05;;;;;;;7.98;100.00;99928.72;5047801;28;20104;-87
2023/04/24 03:54:33;;;;;;;28.85;23.63;;;;;;;7.99;100.00;99925.97;5052284;28;20033;-86
2023/04/24 03:56:58;;;;;;;25.92;23.00;;;;;;;7.99;100.00;99928.59;5048666;28;20029;-86
2023/04/24 03:59:33;;;;;;;30.92;23.25;;;;;;;7.98;100.00;99932.16;5050883;28;20392;-87
2023/04/24 04:02:04;;;;;;;26.15;22.80;;;;;;;7.98;100.00;99933.97;5051622;28;20539;-87
2023/04/24 04:04:36;;;;;;;25.15;22.50;;;;;;;7.97;100.00;99933.13;5050613;28;20029;-88
2023/04/24 04:07:02;;;;;;;26.13;23.08;;;;;;;7.97;100.00;99927.06;5049905;28;20108;-86
2023/04/24 04:09:28;;;;;;;26.77;23.05;;;;;;;7.96;100.00;99930.63;5050057;28;20036;-86
2023/04/24 04:11:57;;;;;;;25.85;21.60;;;;;;;7.96;100.00;99938.47;5051239;28;20388;-86
2023/04/24 04:14:23;;;;;;;26.30;22.80;;;;;;;7.93;100.00;99933.50;5048280;28;20062;-86
2023/04/24 04:16:54;;;;;;;29.05;23.00;;;;;;;7.92;100.00;99939.69;5036008;28;20413;-86
2023/04/24 04:19:23;;;;;;;26.50;23.67;;;;;;;7.92;100.00;99940.50;5042064;28;20036;-86
2023/04/24 04:24:40;;;;;;;25.15;22.33;;;;;;;7.88;100.00;99939.09;5039288;28;20055;-86
2023/04/24 04:27:12;;;;;;;25.23;22.67;;;;;;;7.86;100.00;99936.59;5030764;28;20018;-86
2023/04/24 04:29:38;;;;;;;24.73;22.23;;;;;;;7.86;100.00;99938.38;5038347;28;20036;-86
2023/04/24 04:32:03;;;;;;;25.05;22.60;;;;;;;7.85;100.00;99944.56;5036564;28;20098;-86
2023/04/24 04:34:37;;;;;;;25.10;22.67;;;;;;;7.83;100.00;99952.53;5046542;28;20025;-86
2023/04/24 04:37:17;;;;;;;24.77;22.33;;;;;;;7.81;100.00;99948.38;5024418;28;20410;-86
2023/04/24 04:39:43;;;;;;;25.67;22.83;;;;;;;7.77;100.00;99946.94;5050475;28;20106;-85
2023/04/24 04:42:08;;;;;;;24.80;22.40;;;;;;;7.79;100.00;99950.28;5047659;28;20032;-86
2023/04/24 04:44:46;;;;;;;24.23;21.83;;;;;;;7.76;100.00;99953.13;5032254;28;20036;-86
2023/04/24 04:47:28;;;;;;;22.52;20.40;;;;;;;7.77;100.00;99952.19;5048152;28;20043;-86
2023/04/24 04:50:04;;;;;;;22.57;20.50;;;;;;;7.75;100.00;99951.47;5035473;28;20091;-85
2023/04/24 04:52:41;;;;;;;23.35;21.15;;;;;;;7.74;100.00;99957.66;5051839;28;20024;-85
2023/04/24 04:55:13;;;;;;;23.02;20.92;;;;;;;7.76;100.00;99956.59;5064271;28;20017;-85
2023/04/24 04:57:41;;;;;;;22.05;20.02;;;;;;;7.78;100.00;99961.69;5063635;28;20044;-85
2023/04/24 05:00:13;;;;;;;21.50;19.50;;;;;;;7.82;100.00;99965.75;5049730;28;20484;-85
2023/04/24 05:02:45;;;;;;;19.75;17.95;;;;;;;7.80;100.00;99973.72;5042800;28;20708;-85
2023/04/24 05:05:19;;;;;;;19.50;17.67;;;;;;;7.83;100.00;99972.66;5044155;28;20055;-84
2023/04/24 05:07:48;;;;;;;19.80;17.90;;;;;;;7.82;100.00;99971.81;5044539;28;20040;-84
2023/04/24 05:10:19;;;;;;;19.25;17.35;;;;;;;7.83;100.00;99972.66;5049778;28;20035;-84
2023/04/24 05:12:45;;;;;;;23.73;16.80;;;;;;;7.80;100.00;99965.03;5051270;28;20025;-85
2023/04/24 05:15:20;;;;;;;18.00;16.30;;;;;;;7.83;100.00;99975.28;5047820;28;20067;-84
2023/04/24 05:17:48;;;;;;;16.38;14.77;;;;;;;7.79;100.00;99971.22;5030161;28;20030;-84
2023/04/24 05:20:14;;;;;;;16.23;14.63;;;;;;;7.82;100.00;99965.75;5036618;28;20035;-85
2023/04/24 05:22:40;;;;;;;13.85;12.45;;;;;;;7.81;100.00;99969.31;5048395;28;20033;-85
2023/04/24 05:25:08;;;;;;;13.90;12.60;;;;;;;7.80;100.00;99970.28;5049363;28;20146;-86
2023/04/24 05:27:36;;;;;;;11.05;9.35;;;;;;;7.79;100.00;99977.28;5050120;28;20021;-84
2023/04/24 05:30:09;;;;;;;9.43;8.50;;;;;;;7.80;100.00;99999.06;5047844;28;20064;-85
2023/04/24 05:32:34;;;;;;;8.65;7.60;;;;;;;7.81;100.00;99996.34;5047561;28;20071;-84
2023/04/24 05:35:00;;;;;;;6.88;5.53;;;;;;;7.79;100.00;100000.03;5049402;28;20071;-84
2023/04/24 05:37:25;;;;;;;9.25;5.22;;;;;;;7.78;100.00;100009.66;5059332;28;20025;-84
2023/04/24 05:40:00;;;;;;;4.68;3.78;;;;;;;7.76;100.00;100005.50;5049556;28;20049;-84
2023/04/24 05:42:25;;;;;;;4.45;3.50;;;;;;;7.75;100.00;100009.91;5050294;28;20032;-85
2023/04/24 05:44:54;;;;;;;6.55;3.53;;;;;;;7.73;100.00;100018.81;5064948;28;20025;-86
2023/04/24 05:47:43;;;;;;;4.93;3.15;;;;;;;7.72;100.00;100025.00;5049099;28;20112;-85
2023/04/24 05:50:12;;;;;;;5.13;3.30;;;;;;;7.69;100.00;100023.47;5049076;28;20030;-86
2023/04/24 05:52:37;;;;;;;4.53;3.45;;;;;;;7.69;100.00;100030.47;5048839;28;20111;-86
2023/04/24 05:55:40;;;;;;;4.38;3.33;;;;;;;7.70;100.00;100027.75;5047425;28;20119;-86
2023/04/24 05:58:06;;;;;;;5.35;3.63;;;;;;;7.67;100.00;100027.16;5049409;28;20029;-86
2023/04/24 06:00:46;;;;;;;8.48;4.90;;;;;;;7.69;100.00;100031.31;5044996;28;20028;-87
2023/04/24 06:03:11;;;;;;;5.88;4.15;;;;;;;7.66;100.00;100031.53;5043926;28;20040;-86
2023/04/24 06:05:49;;;;;;;6.25;4.63;;;;;;;7.64;100.00;100032.63;5048445;28;20024;-86
2023/04/24 06:08:22;;;;;;;7.07;5.88;;;;;;;7.65;100.00;100039.50;5049113;28;20021;-88
2023/04/24 06:10:47;;;;;;;10.35;6.47;;;;;;;7.65;100.00;100037.72;5030012;28;20021;-87
2023/04/24 06:13:13;;;;;;;8.25;6.72;;;;;;;7.65;100.00;100042.13;5027272;28;20072;-87
2023/04/24 06:15:41;;;;;;;10.65;7.70;;;;;;;7.65;100.00;100044.75;5033018;28;20111;-88
2023/04/24 06:18:13;;;;;;;8.63;7.82;;;;;;;7.67;100.00;100050.72;5063649;28;20047;-87
2023/04/24 06:20:41;;;;;;;10.25;8.05;;;;;;;7.63;100.00;100059.75;5046730;28;20032;-88
2023/04/24 06:23:34;;;;;;;13.82;9.07;;;;;;;7.64;100.00;100066.66;5029227;28;20083;-88
2023/04/24 06:26:20;;;;;;;9.98;8.68;;;;;;;7.67;100.00;100055.94;5029477;28;20061;-88
2023/04/24 06:28:46;;;;;;;10.57;9.55;;;;;;;7.64;100.00;100082.34;5029188;28;20033;-87
2023/04/24 06:31:11;;;;;;;13.40;10.32;;;;;;;7.63;100.00;100083.31;5028135;28;20466;-88
2023/04/24 06:33:37;;;;;;;13.15;11.38;;;;;;;7.64;100.00;100093.66;5047399;28;20035;-89
2023/04/24 06:36:05;;;;;;;13.70;12.05;;;;;;;7.65;100.00;100120.69;5024369;28;20122;-87
2023/04/24 06:38:30;;;;;;;14.07;12.60;;;;;;;7.66;100.00;100127.59;5026088;28;20128;-88
2023/04/24 06:40:56;;;;;;;16.55;12.00;;;;;;;7.65;100.00;100131.16;5008201;28;20128;-88
2023/04/24 06:43:22;;;;;;;15.68;13.23;;;;;;;7.63;100.00;100133.03;5024537;28;20784;-88
2023/04/24 06:46:25;;;;;;;15.15;13.05;;;;;;;7.66;100.00;100138.06;5026980;28;20496;-87
2023/04/24 06:48:56;;;;;;;18.60;14.52;;;;;;;7.62;100.00;100152.31;5022711;28;20547;-87
2023/04/24 06:51:28;;;;;;;20.02;14.82;;;;;;;7.60;100.00;100154.19;5009554;28;20095;-88
2023/04/24 06:56:45;;;;;;;21.45;16.55;;;;;;;7.60;100.00;100177.75;4983621;28;20126;-88
2023/04/24 06:59:10;;;;;;;20.20;16.20;;;;;;;7.60;100.00;100183.81;5023435;28;20562;-88
2023/04/24 07:01:39;;;;;;;27.20;18.50;;;;;;;7.58;100.00;100203.19;5022167;28;20116;-88
2023/04/24 07:04:05;;;;;;;24.40;18.55;;;;;;;7.55;100.00;100209.50;5024112;28;20036;-88
2023/04/24 07:06:34;;;;;;;23.80;17.58;;;;;;;7.55;100.00;100215.56;5033434;28;20112;-88
2023/04/24 07:09:01;;;;;;;24.85;17.67;;;;;;;7.55;100.00;100219.97;5028453;28;20032;-88
2023/04/24 07:11:29;;;;;;;21.25;17.42;;;;;;;7.54;100.00;100223.53;5041517;28;20071;-89
2023/04/24 07:13:54;;;;;;;22.77;18.08;;;;;;;7.57;100.00;100228.53;5048118;28;20116;-89
2023/04/24 07:16:20;;;;;;;22.92;17.63;;;;;;;7.58;100.00;100239.84;5047062;28;20135;-88
2023/04/24 07:18:48;;;;;;;24.33;18.15;;;;;;;7.54;100.00;100253.16;5038332;28;20061;-88
2023/04/24 07:21:13;;;;;;;23.50;18.08;;;;;;;7.55;100.00;100260.06;5035327;28;20043;-87
2023/04/24 07:23:41;;;;;;;24.42;18.05;;;;;;;7.55;100.00;100262.69;5049340;28;20033;-87
2023/04/24 07:26:09;;;;;;;24.38;17.05;;;;;;;7.55;100.00;100265.31;5029145;28;20022;-87
2023/04/24 07:28:41;;;;;;;24.05;17.95;;;;;;;7.60;100.00;100274.59;5044925;28;20048;-86
2023/04/24 07:31:10;;;;;;;23.25;17.88;;;;;;;7.64;100.00;100284.78;5029817;28;20060;-87
2023/04/24 07:33:39;;;;;;;24.48;16.65;;;;;;;7.63;100.00;100290.97;5047054;28;20123;-87
2023/04/24 07:36:18;;;;;;;23.10;16.13;;;;;;;7.61;100.00;100297.25;5049100;28;20025;-88
2023/04/24 07:38:53;;;;;;;20.58;14.02;;;;;;;7.61;100.00;100312.97;5049241;28;20167;-86
2023/04/24 07:41:20;;;;;;;26.40;12.40;;;;;;;7.58;100.00;100318.38;5044587;28;20620;-87
2023/04/24 07:43:50;;;;;;;18.42;10.10;;;;;;;7.54;100.00;100331.69;4990976;28;20510;-82
2023/04/24 07:46:16;;;;;;;21.67;9.63;;;;;;;7.55;100.00;100340.38;4988941;28;20044;-82
2023/04/24 07:48:41;;;;;;;20.25;9.48;;;;;;;7.55;100.00;100341.22;4991103;28;20034;-82
2023/04/24 07:51:09;;;;;;;18.55;9.52;;;;;;;7.58;100.00;100352.41;4998708;28;20112;-85
2023/04/24 07:53:35;;;;;;;27.50;9.80;;;;;;;7.59;100.00;100354.94;4992521;28;20053;-84
2023/04/24 07:56:00;;;;;;;23.40;10.15;;;;;;;7.61;100.00;100360.91;5005674;28;20497;-84
2023/04/24 07:58:28;;;;;;;18.63;9.52;;;;;;;7.62;100.00;100361.75;5001476;28;20093;-85
2023/04/24 08:00:57;;;;;;;20.10;9.23;;;;;;;7.63;100.00;100363.44;5007291;28;20034;-85
2023/04/24 08:03:25;;;;;;;23.67;10.00;;;;;;;7.65;100.00;100377.25;5011183;28;20042;-84
2023/04/24 08:05:53;;;;;;;22.77;10.27;;;;;;;7.67;100.00;100375.38;5004701;28;20441;-85
2023/04/24 08:08:22;;;;;;;26.58;10.48;;;;;;;7.69;100.00;100383.94;5007731;28;20057;-85
2023/04/24 08:10:50;;;;;;;29.17;11.80;;;;;;;7.75;100.00;100383.53;5009585;28;20394;-84
2023/04/24 08:13:18;;;;;;;28.83;12.50;;;;;;;7.76;100.00;100393.03;5000289;28;20049;-84
2023/04/24 08:15:47;;;;;;;23.92;11.82;;;;;;;7.80;100.00;100397.97;5038192;28;20044;-84
2023/04/24 08:18:18;;;;;;;24.55;11.65;;;;;;;7.85;100.00;100400.25;5049642;28;20017;-83
2023/04/24 08:20:47;;;;;;;23.13;11.65;;;;;;;7.91;100.00;100409.47;5048538;28;20078;-85
2023/04/24 08:23:24;;;;;;;29.85;12.25;;;;;;;7.92;100.00;100417.22;5050042;28;20484;-84
2023/04/24 08:25:49;;;;;;;27.02;13.00;;;;;;;7.98;100.00;100406.31;5044376;28;20041;-85
2023/04/24 08:28:19;;;;;;;26.20;11.35;;;;;;;7.95;100.00;100417.00;5030974;28;20394;-85
2023/04/24 08:30:54;;;;;;;24.92;11.23;;;;;;;7.99;100.00;100415.84;5047033;28;20028;-85
2023/04/24 08:33:34;;;;;;;23.73;10.13;;;;;;;8.03;100.00;100419.94;5048494;28;20041;-85
2023/04/24 08:36:07;;;;;;;23.85;9.57;;;;;;;8.03;100.00;100429.59;5051296;28;20013;-84
2023/04/24 08:38:33;;;;;;;27.10;9.93;;;;;;;8.05;100.00;100431.16;5048597;28;20037;-83
2023/04/24 08:41:04;;;;;;;28.17;8.70;;;;;;;8.04;100.00;100432.09;5051299;28;20083;-84
2023/04/24 08:43:37;;;;;;;23.23;8.00;;;;;;;8.05;100.00;100452.13;5028277;28;20048;-84
2023/04/24 08:46:06;;;;;;;23.92;8.10;;;;;;;8.17;100.00;100463.50;5028149;28;20037;-83
2023/04/24 08:48:56;;;;;;;26.67;8.20;;;;;;;8.26;100.00;100469.88;5015562;28;20041;-84
2023/04/24 08:51:24;;;;;;;27.02;8.55;;;;;;;8.33;100.00;100469.38;5027703;28;20029;-83
2023/04/24 08:53:59;;;;;;;28.33;8.10;;;;;;;8.47;100.00;100471.88;5028689;28;20049;-83
2023/04/24 08:56:29;;;;;;;24.52;7.35;;;;;;;8.52;100.00;100484.66;5027751;28;20513;-83
2023/04/24 08:58:57;;;;;;;20.88;6.93;;;;;;;8.47;100.00;100482.34;5011397;28;20061;-84
2023/04/24 09:01:37;;;;;;;22.75;6.78;;;;;;;8.39;100.00;100491.69;5027591;28;20559;-84
2023/04/24 09:04:11;;;;;;;19.02;6.72;;;;;;;8.31;100.00;100491.34;5024520;28;20034;-85
2023/04/24 09:06:43;;;;;;;17.10;5.95;;;;;;;8.21;100.00;100492.97;5011799;28;20041;-84
2023/04/24 09:09:35;;;;;;;12.82;5.40;;;;;;;8.17;100.00;100495.78;5007350;28;20036;-85
2023/04/24 09:12:15;;;;;;;18.15;5.38;;;;;;;8.08;100.00;100512.16;5013496;28;20041;-85
2023/04/24 09:15:03;;;;;;;15.85;5.43;;;;;;;8.06;100.00;100506.19;5031316;28;20037;-85
2023/04/24 09:17:35;;;;;;;17.45;5.55;;;;;;;8.12;100.00;100513.63;5011280;28;20033;-85
2023/04/24 09:20:02;;;;;;;18.73;5.47;;;;;;;8.24;100.00;100518.94;5032775;28;20040;-85
2023/04/24 09:22:41;;;;;;;17.83;5.97;;;;;;;8.33;100.00;100516.56;5031491;28;20033;-85
2023/04/24 09:25:13;;;;;;;16.20;5.15;;;;;;;8.46;100.00;100527.03;5035804;28;20071;-85
2023/04/24 09:27:48;;;;;;;16.88;4.80;;;;;;;8.50;100.00;100538.97;5029820;28;20127;-85
2023/04/24 09:30:23;;;;;;;23.50;5.25;;;;;;;8.46;100.00;100543.59;5023300;28;20128;-85
2023/04/24 09:33:18;;;;;;;19.95;5.43;;;;;;;8.42;100.00;100546.56;5029788;28;20525;-85
2023/04/24 09:35:55;;;;;;;15.20;4.90;;;;;;;8.30;100.00;100556.06;5032886;28;20052;-85
2023/04/24 09:38:40;;;;;;;18.33;5.40;;;;;;;8.28;100.00;100555.31;5027213;28;20500;-86
2023/04/24 09:41:19;;;;;;;15.80;4.45;;;;;;;8.15;100.00;100567.59;5036341;28;20076;-86
2023/04/24 09:43:48;;;;;;;13.65;4.30;;;;;;;8.13;100.00;100567.72;5023499;28;20033;-86
2023/04/24 09:46:18;;;;;;;17.23;4.57;;;;;;;8.12;100.00;100579.13;5035553;28;20037;-86
2023/04/24 09:48:43;;;;;;;12.77;3.95;;;;;;;8.18;100.00;100570.00;5052714;28;20017;-86
2023/04/24 09:51:15;;;;;;;11.48;3.60;;;;;;;8.22;100.00;100586.34;5047152;28;20025;-86
2023/04/24 09:53:47;;;;;;;12.63;3.92;;;;;;;8.41;100.00;100592.06;5050868;28;20029;-86
2023/04/24 09:56:21;;;;;;;16.50;3.97;;;;;;;8.57;100.00;100576.09;5047410;28;20108;-85
2023/04/24 09:58:49;;;;;;;14.30;4.13;;;;;;;8.76;100.00;100592.19;5045595;28;20476;-86
2023/04/24 10:01:15;;;;;;;12.48;4.10;;;;;;;9.03;100.00;100599.91;5045772;28;20035;-86
2023/04/24 10:03:42;;;;;;;10.45;3.67;;;;;;;9.47;100.00;100598.47;5047275;28;20017;-87
2023/04/24 10:06:16;;;;;;;10.80;3.38;;;;;;;9.80;100.00;100601.25;5048694;28;20469;-87
2023/04/24 10:08:51;;;;;;;13.63;3.80;;;;;;;9.80;99.17;100596.00;5045622;28;20023;-87
2023/04/24 10:11:19;;;;;;;13.88;3.28;;;;;;;9.92;100.00;100610.84;5064718;28;20021;-86
2023/04/24 10:13:57;;;;;;;12.13;3.22;;;;;;;9.98;99.79;100605.13;5047828;28;20048;-87
2023/04/24 10:16:28;;;;;;;8.55;2.70;;;;;;;9.82;99.54;100599.34;5039729;28;20037;-87
2023/04/24 10:19:02;;;;;;;8.60;2.80;;;;;;;9.64;96.06;100611.22;5045628;28;20025;-87
2023/04/24 10:21:27;;;;;;;10.30;3.30;;;;;;;9.53;100.00;100605.91;5047295;28;20106;-87
2023/04/24 10:23:53;;;;;;;9.75;3.00;;;;;;;9.37;100.00;100625.41;5049213;28;20025;-87
2023/04/24 10:26:19;;;;;;;11.10;2.90;;;;;;;9.25;100.00;100623.69;5047683;28;20497;-88
2023/04/24 10:28:48;;;;;;;6.43;2.00;;;;;;;9.05;98.03;100640.00;5049697;28;20021;-87
2023/04/24 10:31:17;;;;;;;10.23;1.95;;;;;;;8.88;99.08;100635.97;5047646;28;20021;-87
2023/04/24 10:33:49;;;;;;;6.72;1.63;;;;;;;8.81;100.00;100639.13;5046396;28;20064;-87
2023/04/24 10:36:32;;;;;;;7.35;2.10;;;;;;;8.78;99.82;100641.00;5047600;28;20020;-87
2023/04/24 10:39:03;;;;;;;7.35;1.90;;;;;;;8.85;100.00;100651.09;5049093;28;20048;-88
2023/04/24 10:41:32;;;;;;;4.90;1.63;;;;;;;8.89;96.67;100648.13;5047868;28;20093;-87
2023/04/24 10:44:22;;;;;;;8.45;2.20;;;;;;;9.08;99.10;100658.16;5043415;28;20397;-87
2023/04/24 10:46:54;;;;;;;6.18;1.70;;;;;;;9.22;99.77;100652.78;5049731;28;20017;-87
2023/04/24 10:49:35;;;;;;;;;;;;;;;9.41;100.00;100649.66;5048462;28;20013;-87
2023/04/24 10:52:12;;;;;;;8.93;1.98;;;;;;;9.33;94.28;100655.47;5047565;28;19913;-87
2023/04/24 10:54:40;;;;;;;9.80;1.83;;;;;;;9.36;94.28;100659.66;5042278;28;20044;-88
2023/04/24 10:57:21;;;;;;;6.60;2.00;;;;;;;9.47;96.54;100653.63;5043843;28;20488;-86
2023/04/24 11:00:09;;;;;;;9.32;2.00;;;;;;;9.57;94.76;100657.25;5041291;28;20551;-87
2023/04/24 11:02:53;;;;;;;4.25;1.60;;;;;;;9.61;95.74;100664.00;4993803;28;20041;-86
2023/04/24 11:05:22;;;;;;;6.22;2.08;;;;;;;9.71;95.04;100659.75;4994678;28;20025;-87
2023/04/24 11:08:23;;;;;;;5.75;1.73;;;;;;;9.65;95.74;100666.28;4989018;28;20036;-87
2023/04/24 11:11:15;;;;;;;5.82;1.60;;;;;;;9.48;92.84;100668.44;4978688;28;20088;-87
2023/04/24 11:13:55;;;;;;;7.18;1.63;;;;;;;9.37;96.43;100683.19;4987794;28;20384;-87
2023/04/24 11:16:23;;;;;;;9.30;1.77;;;;;;;9.24;94.37;100682.38;5001065;28;20025;-88
2023/04/24 11:19:13;;;;;;;7.43;1.92;;;;;;;9.26;95.59;100685.75;4991143;28;20446;-87
2023/04/24 11:21:46;;;;;;;6.25;1.77;;;;;;;9.15;93.38;100688.28;5006628;28;20048;-87
2023/04/24 11:24:30;;;;;;;;;;;;;;;9.28;97.01;100698.75;5006247;28;20040;-87
2023/04/24 11:26:59;;;;;;;4.57;1.45;;;;;;;8.97;93.76;100700.06;4983647;28;19920;-87
2023/04/24 11:32:51;;;;;;;6.78;1.73;;;;;;;8.94;93.71;100700.28;5000015;28;20039;-87
2023/04/24 11:35:27;;;;;;;5.28;1.67;;;;;;;8.99;96.62;100700.78;5047152;28;20021;-87
2023/04/24 11:38:22;;;;;;;9.30;2.10;;;;;;;9.03;95.60;100699.63;5046136;28;20497;-88
2023/04/24 11:40:55;;;;;;;7.95;1.80;;;;;;;9.12;94.57;100709.47;5043489;28;20140;-87
2023/04/24 11:43:30;;;;;;;;;;;;;;;9.27;97.16;100708.44;5045729;28;20028;-87
2023/04/24 11:46:04;;;;;;;7.50;1.70;;;;;;;9.20;94.62;100711.56;5041960;28;19980;-88
2023/04/24 11:48:39;;;;;;;6.03;1.70;;;;;;;9.34;94.17;100725.41;5039639;28;20016;-88
2023/04/24 11:51:15;;;;;;;4.30;1.50;;;;;;;9.46;92.86;100713.19;5004581;28;20069;-87
2023/04/24 11:53:40;;;;;;;4.25;1.58;;;;;;;9.57;90.27;100726.38;4989864;28;20046;-88